Gulf Pearl — C6UK9 — position and weather

sailwx.info

Track history (hours):
 
Tides and Currents Weather Stations Pressure Air Temp Water Temp Dewpoint Dewpoint Depression Visibility Wind Speed Wind Dir Waves Ship Positions

Gulf Pearl

Last reported at 2018-Feb-04 21:32 UTC. Time now 2018-Feb-20 07:28 UTC.
Position N 28°00' W 116°18'.
Warning: this ship's position is 15 days out of date.

Length 228 m; draft 8.3 m.

Type: Tanker. MMSI: 311943000.

Date/timePositionNaut miles runAvg speedWind from/ knotsBaromVisibWave heightAir tempDewpointWater temp
2018-Feb-04 21:32N 28°00' W 116°18'1 7.4
2018-Feb-04 21:24N 28°01' W 116°18'24010.4
2018-Feb-03 22:14N 31°46' W 117°56'312.2
2018-Feb-03 22:00N 31°49' W 117°56'612.4
2018-Feb-03 21:30N 31°55' W 117°57'612.2
2018-Feb-03 21:00N 32°01' W 117°57'713.4
2018-Feb-03 20:30N 32°07' W 117°56'612.5
2018-Feb-03 20:00N 32°14' W 117°55'1811.8
2018-Feb-03 18:30N 32°31' W 117°52'714.0
2018-Feb-03 18:01N 32°37' W 117°56'612.0
2018-Feb-03 17:30N 32°43' W 117°59'510.5
2018-Feb-03 17:00N 32°48' W 117°60'1312.8
2018-Feb-03 16:00N 33°01' W 118°02'510.3
2018-Feb-03 15:30N 33°06' W 118°03'510.3
2018-Feb-03 15:00N 33°11' W 118°05'510.3
2018-Feb-03 14:30N 33°16' W 118°06'510.4
2018-Feb-03 14:00N 33°21' W 118°07'510.7
2018-Feb-03 13:30N 33°26' W 118°09'510.6
2018-Feb-03 13:00N 33°31' W 118°12'5 9.9
2018-Feb-03 12:30N 33°36' W 118°13'511.0
2018-Feb-03 12:00N 33°40' W 118°10'1 1.8
2018-Feb-03 11:30N 33°41' W 118°09'0 0.1
2018-Feb-03 11:00N 33°41' W 118°09'0 0.0
2018-Feb-03 10:29N 33°41' W 118°09'0 0.1
2018-Feb-03 10:00N 33°41' W 118°09'0 0.1
2018-Feb-03 09:30N 33°41' W 118°09'0 0.2
2018-Feb-03 09:00N 33°41' W 118°09'0 0.1
2018-Feb-03 08:29N 33°41' W 118°09'0 0.0
2018-Feb-03 08:00N 33°41' W 118°09'0 0.1
2018-Feb-03 06:30N 33°41' W 118°09'0 0.1
2018-Feb-03 06:00N 33°41' W 118°09'0 0.0
2018-Feb-03 05:30N 33°41' W 118°09'0 0.1
2018-Feb-03 05:00N 33°41' W 118°09'0 0.0
2018-Feb-03 04:00N 33°41' W 118°09'0 0.1
2018-Feb-03 03:30N 33°41' W 118°09'0 0.0
2018-Feb-03 02:00N 33°41' W 118°09'0 0.0
2018-Feb-03 01:29N 33°41' W 118°09'0 0.0
2018-Feb-03 01:00N 33°41' W 118°09'0 0.0
2018-Feb-03 00:30N 33°41' W 118°09'0 0.0
2018-Feb-03 00:00N 33°41' W 118°09'0 0.0
2018-Feb-02 23:28N 33°41' W 118°09'0 0.0
2018-Feb-02 23:00N 33°41' W 118°09'0 0.0
2018-Feb-02 22:31N 33°41' W 118°09'0 0.0
2018-Feb-02 22:00N 33°41' W 118°09'0 0.0
2018-Feb-02 21:30N 33°41' W 118°09'0 0.1
2018-Feb-02 21:00N 33°41' W 118°09'0 0.1
2018-Feb-02 20:31N 33°41' W 118°09'0 0.3
2018-Feb-02 20:00N 33°41' W 118°09'0 0.1
2018-Feb-02 18:59N 33°41' W 118°09'0 0.1
2018-Feb-02 18:30N 33°41' W 118°09'0 0.0
2018-Feb-02 18:00N 33°41' W 118°09'0 0.2
2018-Feb-02 17:30N 33°41' W 118°09'0 0.1
2018-Feb-02 17:00N 33°41' W 118°09'0 0.0
2018-Feb-02 16:30N 33°41' W 118°09'0 0.1
2018-Feb-02 15:30N 33°41' W 118°09'0 0.2
2018-Feb-02 14:30N 33°41' W 118°09'0 0.0
2018-Feb-02 14:00N 33°41' W 118°09'0 0.5
2018-Feb-02 13:30N 33°41' W 118°09'2 3.5
2018-Feb-02 13:00N 33°43' W 118°10'3 6.6
2018-Feb-02 12:30N 33°45' W 118°13'1 2.8
2018-Feb-02 11:59N 33°46' W 118°13'0 0.0
2018-Feb-02 11:29N 33°46' W 118°13'0 0.0
2018-Feb-02 01:35N 33°46' W 118°13'0 0.1
2018-Feb-02 01:29N 33°46' W 118°13'0 0.1
2018-Feb-02 00:59N 33°46' W 118°14'0 0.1
2018-Feb-02 00:29N 33°46' W 118°13'0 0.0
2018-Feb-01 23:59N 33°46' W 118°13'0 0.0
2018-Feb-01 23:29N 33°46' W 118°13'0 0.0
2018-Feb-01 22:50N 33°46' W 118°13'0 0.0
2018-Feb-01 21:56N 33°46' W 118°13'0 0.0
2018-Feb-01 21:29N 33°46' W 118°13'0 0.0
2018-Feb-01 19:29N 33°46' W 118°13'0 0.0
2018-Feb-01 18:59N 33°46' W 118°13'0 0.0
2018-Feb-01 18:20N 33°46' W 118°13'0 0.0
2018-Feb-01 17:59N 33°46' W 118°13'0 0.0
2018-Feb-01 17:29N 33°46' W 118°13'0 0.0
2018-Feb-01 16:59N 33°46' W 118°13'0 0.0
2018-Feb-01 16:29N 33°46' W 118°13'0 0.0
2018-Feb-01 15:56N 33°46' W 118°13'0 0.0
2018-Feb-01 15:29N 33°46' W 118°13'0 0.0
2018-Feb-01 14:59N 33°46' W 118°13'0 0.0
2018-Feb-01 01:35N 33°46' W 118°13'0 0.0
2018-Feb-01 01:26N 33°46' W 118°13'0 0.0
2018-Feb-01 00:50N 33°46' W 118°13'0 0.0
2018-Feb-01 00:26N 33°46' W 118°13'0 0.0
2018-Jan-31 23:56N 33°46' W 118°13'0 0.0
2018-Jan-31 22:53N 33°46' W 118°13'0 0.0
2018-Jan-31 22:20N 33°46' W 118°13'0 0.0
2018-Jan-31 20:59N 33°46' W 118°13'0 0.0
2018-Jan-31 20:26N 33°46' W 118°13'0 0.1
2018-Jan-31 19:59N 33°46' W 118°13'0 0.1
2018-Jan-31 19:20N 33°46' W 118°13'0 0.0
2018-Jan-31 18:56N 33°46' W 118°13'0 0.0
2018-Jan-31 18:23N 33°46' W 118°13'0 0.0
2018-Jan-31 17:56N 33°46' W 118°13'0 0.0
2018-Jan-31 17:29N 33°46' W 118°13'0 0.0
2018-Jan-31 16:53N 33°46' W 118°13'0 0.0
2018-Jan-31 16:29N 33°46' W 118°13'0 0.0
2018-Jan-31 15:59N 33°46' W 118°13'0 0.0
2018-Jan-31 15:29N 33°46' W 118°13'0 0.3
2018-Jan-31 15:00N 33°46' W 118°13'2 3.6
2018-Jan-31 14:30N 33°44' W 118°13'2 1.4
2018-Jan-31 13:00N 33°44' W 118°10'0 0.0
2018-Jan-31 12:29N 33°44' W 118°10'0 0.0
2018-Jan-31 12:00N 33°44' W 118°10'0 0.0
2018-Jan-31 11:30N 33°44' W 118°10'0 0.0
2018-Jan-31 11:00N 33°44' W 118°10'0 0.0
2018-Jan-31 10:30N 33°44' W 118°10'0 0.0
2018-Jan-31 10:00N 33°44' W 118°10'0 0.1
2018-Jan-31 09:30N 33°44' W 118°10'0 0.1
2018-Jan-31 09:00N 33°44' W 118°10'0 0.0
2018-Jan-31 08:30N 33°44' W 118°10'0 0.0
2018-Jan-31 08:00N 33°44' W 118°10'0 0.1
2018-Jan-31 07:30N 33°44' W 118°10'0 0.0
2018-Jan-31 06:57N 33°44' W 118°10'0 0.0
2018-Jan-31 06:30N 33°44' W 118°10'0 0.1
2018-Jan-31 06:00N 33°44' W 118°10'0 0.0
2018-Jan-31 05:30N 33°44' W 118°10'0 0.1
2018-Jan-31 05:00N 33°44' W 118°10'0 0.0
2018-Jan-31 04:30N 33°44' W 118°10'0 0.0
2018-Jan-31 04:00N 33°44' W 118°10'0 0.0
2018-Jan-31 03:28N 33°44' W 118°10'0 0.0
2018-Jan-31 03:00N 33°44' W 118°10'0 0.1
2018-Jan-31 02:30N 33°44' W 118°10'0 0.0
2018-Jan-31 02:00N 33°44' W 118°10'0 0.1
2018-Jan-31 01:30N 33°44' W 118°10'0 0.0
2018-Jan-31 01:00N 33°44' W 118°10'0 0.0
2018-Jan-31 00:00N 33°44' W 118°10'0 0.0
2018-Jan-30 23:30N 33°44' W 118°10'0 0.0
2018-Jan-30 23:00N 33°44' W 118°10'0 0.0
2018-Jan-30 22:30N 33°44' W 118°10'0 0.0
2018-Jan-30 21:30N 33°44' W 118°10'0 0.0
2018-Jan-30 21:00N 33°44' W 118°10'0 0.1
2018-Jan-30 20:30N 33°44' W 118°10'0 0.1
2018-Jan-30 20:00N 33°44' W 118°10'0 0.1
2018-Jan-30 19:30N 33°44' W 118°10'0 0.1
2018-Jan-30 19:00N 33°44' W 118°10'0 0.0
2018-Jan-30 18:30N 33°44' W 118°10'0 0.0
2018-Jan-30 18:00N 33°44' W 118°10'0 0.0
2018-Jan-30 17:30N 33°44' W 118°10'0 0.0
2018-Jan-30 17:00N 33°44' W 118°10'0 0.1
2018-Jan-30 16:30N 33°44' W 118°10'0 0.0
2018-Jan-30 16:00N 33°44' W 118°10'0 0.0
2018-Jan-30 15:30N 33°44' W 118°10'0 0.0
2018-Jan-30 14:58N 33°44' W 118°10'0 0.0
2018-Jan-30 14:29N 33°44' W 118°10'0 0.1
2018-Jan-30 13:29N 33°44' W 118°10'0 0.0
2018-Jan-30 12:43N 33°44' W 118°10'0 0.0
2018-Jan-30 12:25N 33°44' W 118°10'0 0.0
2018-Jan-30 12:00N 33°44' W 118°10'0 0.0
2018-Jan-30 11:30N 33°44' W 118°10'0 0.1
2018-Jan-30 10:30N 33°44' W 118°10'0 0.1
2018-Jan-30 09:30N 33°44' W 118°10'0 0.1
2018-Jan-30 08:57N 33°44' W 118°10'0 0.1
2018-Jan-30 08:20N 33°44' W 118°10'0 0.1
2018-Jan-30 07:51N 33°44' W 118°10'0 0.1
2018-Jan-30 07:29N 33°44' W 118°10'0 0.1
2018-Jan-30 05:36N 33°44' W 118°10'0 0.0
2018-Jan-30 05:20N 33°44' W 118°10'0 0.2
2018-Jan-30 04:59N 33°44' W 118°10'3 5.4
2018-Jan-30 04:30N 33°41' W 118°11'4 8.2
2018-Jan-30 03:59N 33°37' W 118°13'4 9.1
2018-Jan-30 03:30N 33°36' W 118°18'610.7
2018-Jan-30 02:59N 33°38' W 118°24'1611.7
2018-Jan-30 01:34N 33°46' W 118°41'111.7
2018-Jan-30 01:30N 33°46' W 118°42'611.8
2018-Jan-30 01:00N 33°49' W 118°48'611.9
2018-Jan-30 00:30N 33°52' W 118°55'712.6
2018-Jan-29 23:57N 33°55' W 119°02'613.8
2018-Jan-29 23:31N 33°58' W 119°08'714.0
2018-Jan-29 23:00N 34°02' W 119°16'713.8
2018-Jan-29 22:28N 34°04' W 119°24'4 7.3
2018-Jan-29 21:58N 34°05' W 119°29'2 3.9
2018-Jan-29 21:27N 34°06' W 119°31'510.3
2018-Jan-29 21:00N 34°07' W 119°36'813.6
2018-Jan-29 20:23N 34°09' W 119°46'513.3
2018-Jan-29 19:59N 34°11' W 119°52'813.2
2018-Jan-29 19:24N 34°13' W 120°01'513.3
2018-Jan-29 19:00N 34°14' W 120°07'713.3
2018-Jan-29 18:30N 34°16' W 120°15'612.9
2018-Jan-29 18:00N 34°18' W 120°23'612.4
2018-Jan-29 17:30N 34°19' W 120°30'612.9
2018-Jan-29 17:00N 34°21' W 120°37'713.3
2018-Jan-29 16:30N 34°23' W 120°45'713.3
2018-Jan-29 15:59N 34°25' W 120°53'612.6
2018-Jan-29 15:30N 34°25' W 121°01'612.4
2018-Jan-29 15:00N 34°26' W 121°08'612.4
2018-Jan-29 14:30N 34°27' W 121°15'612.5
2018-Jan-29 14:00N 34°29' W 121°23'612.6
2018-Jan-29 13:30N 34°31' W 121°30'612.7
2018-Jan-29 13:00N 34°34' W 121°37'612.9
2018-Jan-29 12:31N 34°37' W 121°43'612.9
2018-Jan-29 12:01N 34°40' W 121°50'713.2
2018-Jan-29 11:30N 34°44' W 121°57'713.1
2018-Jan-29 11:01N 34°47' W 122°04'612.7
2018-Jan-29 10:31N 34°50' W 122°11'612.8
2018-Jan-29 10:01N 34°53' W 122°18'612.7
2018-Jan-29 09:30N 34°56' W 122°24'612.7
2018-Jan-29 09:01N 34°60' W 122°31'612.8
2018-Jan-29 08:31N 35°03' W 122°37'912.9
2018-Jan-29 07:51N 35°08' W 122°46'413.0
2018-Jan-29 07:30N 35°12' W 122°49'713.1
2018-Jan-29 07:00N 35°18' W 122°53'713.4
2018-Jan-29 06:28N 35°24' W 122°57'613.5
2018-Jan-29 06:00N 35°29' W 123°01'713.4
2018-Jan-29 05:30N 35°35' W 123°04'913.7
2018-Jan-29 04:53N 35°43' W 123°09'513.3
2018-Jan-29 04:30N 35°47' W 123°12'713.1
2018-Jan-29 03:58N 35°53' W 123°16'5913.3
2018-Jan-28 23:33N 36°45' W 123°51'1513.5
2018-Jan-28 22:26N 36°59' W 123°60'3713.4
2018-Jan-28 19:41N 37°31' W 124°22'412.8
2018-Jan-28 19:24N 37°34' W 124°24'1013.2
2018-Jan-28 18:38N 37°43' W 124°30'212.8
2018-Jan-28 18:29N 37°45' W 124°31'613.4
2018-Jan-28 18:00N 37°50' W 124°35'1613.1
2018-Jan-28 16:45N 38°05' W 124°45'413.8
2018-Jan-28 16:29N 38°08' W 124°47'713.6
2018-Jan-28 16:00N 38°14' W 124°51'  
2018-Jan-26 11:39N 48°11' W 125°44'210.9
2018-Jan-26 11:30N 48°13' W 125°42'611.0
2018-Jan-26 10:58N 48°16' W 125°36'511.0
2018-Jan-26 10:29N 48°20' W 125°30'511.0
2018-Jan-26 10:00N 48°24' W 125°24'610.8
2018-Jan-26 09:29N 48°27' W 125°17'510.7
2018-Jan-26 08:58N 48°29' W 125°10'510.9
2018-Jan-26 08:30N 48°32' W 125°03'611.2
2018-Jan-26 08:00N 48°32' W 124°54'611.4
2018-Jan-26 07:30N 48°31' W 124°46'510.7
2018-Jan-26 07:00N 48°29' W 124°38'611.6
2018-Jan-26 06:30N 48°27' W 124°30'611.8
2018-Jan-26 06:00N 48°25' W 124°22'612.4
2018-Jan-26 05:30N 48°23' W 124°13'612.7
2018-Jan-26 05:00N 48°20' W 124°05'612.6
2018-Jan-26 04:30N 48°18' W 123°56'612.1
2018-Jan-26 03:58N 48°17' W 123°46'1511.3
2018-Jan-26 02:37N 48°22' W 123°25'110.2
2018-Jan-26 02:31N 48°23' W 123°24'5 9.7
2018-Jan-26 02:00N 48°23' W 123°16'5 9.3
2018-Jan-26 01:30N 48°27' W 123°12'611.8
2018-Jan-26 01:00N 48°33' W 123°13'612.7
2018-Jan-26 00:30N 48°39' W 123°15'510.6
2018-Jan-26 00:00N 48°44' W 123°11'714.2
2018-Jan-25 23:30N 48°47' W 123°01'611.7
2018-Jan-25 23:00N 48°52' W 123°05'714.5
2018-Jan-25 22:30N 48°57' W 123°13'713.6
2018-Jan-25 22:00N 49°02' W 123°21'  
Track history (hours):
 
Tides and Currents Weather Stations Pressure Air Temp Water Temp Dewpoint Dewpoint Depression Visibility Wind Speed Wind Dir Waves Ship Positions

Gulf Pearl

Last reported at 2018-Feb-04 21:32 UTC. Time now 2018-Feb-20 07:28 UTC.
Position N 28°00' W 116°18'.
Warning: this ship's position is 15 days out of date.

Length 228 m; draft 8.3 m.

Type: Tanker. MMSI: 311943000.

Date/timePositionNaut miles runAvg speedWind from/ knotsBaromVisibWave heightAir tempDewpointWater temp
2018-Feb-04 21:32N 28°00' W 116°18'1 7.4
2018-Feb-04 21:24N 28°01' W 116°18'24010.4
2018-Feb-03 22:14N 31°46' W 117°56'312.2
2018-Feb-03 22:00N 31°49' W 117°56'612.4
2018-Feb-03 21:30N 31°55' W 117°57'612.2
2018-Feb-03 21:00N 32°01' W 117°57'713.4
2018-Feb-03 20:30N 32°07' W 117°56'612.5
2018-Feb-03 20:00N 32°14' W 117°55'1811.8
2018-Feb-03 18:30N 32°31' W 117°52'714.0
2018-Feb-03 18:01N 32°37' W 117°56'612.0
2018-Feb-03 17:30N 32°43' W 117°59'510.5
2018-Feb-03 17:00N 32°48' W 117°60'1312.8
2018-Feb-03 16:00N 33°01' W 118°02'510.3
2018-Feb-03 15:30N 33°06' W 118°03'510.3
2018-Feb-03 15:00N 33°11' W 118°05'510.3
2018-Feb-03 14:30N 33°16' W 118°06'510.4
2018-Feb-03 14:00N 33°21' W 118°07'510.7
2018-Feb-03 13:30N 33°26' W 118°09'510.6
2018-Feb-03 13:00N 33°31' W 118°12'5 9.9
2018-Feb-03 12:30N 33°36' W 118°13'511.0
2018-Feb-03 12:00N 33°40' W 118°10'1 1.8
2018-Feb-03 11:30N 33°41' W 118°09'0 0.1
2018-Feb-03 11:00N 33°41' W 118°09'0 0.0
2018-Feb-03 10:29N 33°41' W 118°09'0 0.1
2018-Feb-03 10:00N 33°41' W 118°09'0 0.1
2018-Feb-03 09:30N 33°41' W 118°09'0 0.2
2018-Feb-03 09:00N 33°41' W 118°09'0 0.1
2018-Feb-03 08:29N 33°41' W 118°09'0 0.0
2018-Feb-03 08:00N 33°41' W 118°09'0 0.1
2018-Feb-03 06:30N 33°41' W 118°09'0 0.1
2018-Feb-03 06:00N 33°41' W 118°09'0 0.0
2018-Feb-03 05:30N 33°41' W 118°09'0 0.1
2018-Feb-03 05:00N 33°41' W 118°09'0 0.0
2018-Feb-03 04:00N 33°41' W 118°09'0 0.1
2018-Feb-03 03:30N 33°41' W 118°09'0 0.0
2018-Feb-03 02:00N 33°41' W 118°09'0 0.0
2018-Feb-03 01:29N 33°41' W 118°09'0 0.0
2018-Feb-03 01:00N 33°41' W 118°09'0 0.0
2018-Feb-03 00:30N 33°41' W 118°09'0 0.0
2018-Feb-03 00:00N 33°41' W 118°09'0 0.0
2018-Feb-02 23:28N 33°41' W 118°09'0 0.0
2018-Feb-02 23:00N 33°41' W 118°09'0 0.0
2018-Feb-02 22:31N 33°41' W 118°09'0 0.0
2018-Feb-02 22:00N 33°41' W 118°09'0 0.0
2018-Feb-02 21:30N 33°41' W 118°09'0 0.1
2018-Feb-02 21:00N 33°41' W 118°09'0 0.1
2018-Feb-02 20:31N 33°41' W 118°09'0 0.3
2018-Feb-02 20:00N 33°41' W 118°09'0 0.1
2018-Feb-02 18:59N 33°41' W 118°09'0 0.1
2018-Feb-02 18:30N 33°41' W 118°09'0 0.0
2018-Feb-02 18:00N 33°41' W 118°09'0 0.2
2018-Feb-02 17:30N 33°41' W 118°09'0 0.1
2018-Feb-02 17:00N 33°41' W 118°09'0 0.0
2018-Feb-02 16:30N 33°41' W 118°09'0 0.1
2018-Feb-02 15:30N 33°41' W 118°09'0 0.2
2018-Feb-02 14:30N 33°41' W 118°09'0 0.0
2018-Feb-02 14:00N 33°41' W 118°09'0 0.5
2018-Feb-02 13:30N 33°41' W 118°09'2 3.5
2018-Feb-02 13:00N 33°43' W 118°10'3 6.6
2018-Feb-02 12:30N 33°45' W 118°13'1 2.8
2018-Feb-02 11:59N 33°46' W 118°13'0 0.0
2018-Feb-02 11:29N 33°46' W 118°13'0 0.0
2018-Feb-02 01:35N 33°46' W 118°13'0 0.1
2018-Feb-02 01:29N 33°46' W 118°13'0 0.1
2018-Feb-02 00:59N 33°46' W 118°14'0 0.1
2018-Feb-02 00:29N 33°46' W 118°13'0 0.0
2018-Feb-01 23:59N 33°46' W 118°13'0 0.0
2018-Feb-01 23:29N 33°46' W 118°13'0 0.0
2018-Feb-01 22:50N 33°46' W 118°13'0 0.0
2018-Feb-01 21:56N 33°46' W 118°13'0 0.0
2018-Feb-01 21:29N 33°46' W 118°13'0 0.0
2018-Feb-01 19:29N 33°46' W 118°13'0 0.0
2018-Feb-01 18:59N 33°46' W 118°13'0 0.0
2018-Feb-01 18:20N 33°46' W 118°13'0 0.0
2018-Feb-01 17:59N 33°46' W 118°13'0 0.0
2018-Feb-01 17:29N 33°46' W 118°13'0 0.0
2018-Feb-01 16:59N 33°46' W 118°13'0 0.0
2018-Feb-01 16:29N 33°46' W 118°13'0 0.0
2018-Feb-01 15:56N 33°46' W 118°13'0 0.0
2018-Feb-01 15:29N 33°46' W 118°13'0 0.0
2018-Feb-01 14:59N 33°46' W 118°13'0 0.0
2018-Feb-01 01:35N 33°46' W 118°13'0 0.0
2018-Feb-01 01:26N 33°46' W 118°13'0 0.0
2018-Feb-01 00:50N 33°46' W 118°13'0 0.0
2018-Feb-01 00:26N 33°46' W 118°13'0 0.0
2018-Jan-31 23:56N 33°46' W 118°13'0 0.0
2018-Jan-31 22:53N 33°46' W 118°13'0 0.0
2018-Jan-31 22:20N 33°46' W 118°13'0 0.0
2018-Jan-31 20:59N 33°46' W 118°13'0 0.0
2018-Jan-31 20:26N 33°46' W 118°13'0 0.1
2018-Jan-31 19:59N 33°46' W 118°13'0 0.1
2018-Jan-31 19:20N 33°46' W 118°13'0 0.0
2018-Jan-31 18:56N 33°46' W 118°13'0 0.0
2018-Jan-31 18:23N 33°46' W 118°13'0 0.0
2018-Jan-31 17:56N 33°46' W 118°13'0 0.0
2018-Jan-31 17:29N 33°46' W 118°13'0 0.0
2018-Jan-31 16:53N 33°46' W 118°13'0 0.0
2018-Jan-31 16:29N 33°46' W 118°13'0 0.0
2018-Jan-31 15:59N 33°46' W 118°13'0 0.0
2018-Jan-31 15:29N 33°46' W 118°13'0 0.3
2018-Jan-31 15:00N 33°46' W 118°13'2 3.6
2018-Jan-31 14:30N 33°44' W 118°13'2 1.4
2018-Jan-31 13:00N 33°44' W 118°10'0 0.0
2018-Jan-31 12:29N 33°44' W 118°10'0 0.0
2018-Jan-31 12:00N 33°44' W 118°10'0 0.0
2018-Jan-31 11:30N 33°44' W 118°10'0 0.0
2018-Jan-31 11:00N 33°44' W 118°10'0 0.0
2018-Jan-31 10:30N 33°44' W 118°10'0 0.0
2018-Jan-31 10:00N 33°44' W 118°10'0 0.1
2018-Jan-31 09:30N 33°44' W 118°10'0 0.1
2018-Jan-31 09:00N 33°44' W 118°10'0 0.0
2018-Jan-31 08:30N 33°44' W 118°10'0 0.0
2018-Jan-31 08:00N 33°44' W 118°10'0 0.1
2018-Jan-31 07:30N 33°44' W 118°10'0 0.0
2018-Jan-31 06:57N 33°44' W 118°10'0 0.0
2018-Jan-31 06:30N 33°44' W 118°10'0 0.1
2018-Jan-31 06:00N 33°44' W 118°10'0 0.0
2018-Jan-31 05:30N 33°44' W 118°10'0 0.1
2018-Jan-31 05:00N 33°44' W 118°10'0 0.0
2018-Jan-31 04:30N 33°44' W 118°10'0 0.0
2018-Jan-31 04:00N 33°44' W 118°10'0 0.0
2018-Jan-31 03:28N 33°44' W 118°10'0 0.0
2018-Jan-31 03:00N 33°44' W 118°10'0 0.1
2018-Jan-31 02:30N 33°44' W 118°10'0 0.0
2018-Jan-31 02:00N 33°44' W 118°10'0 0.1
2018-Jan-31 01:30N 33°44' W 118°10'0 0.0
2018-Jan-31 01:00N 33°44' W 118°10'0 0.0
2018-Jan-31 00:00N 33°44' W 118°10'0 0.0
2018-Jan-30 23:30N 33°44' W 118°10'0 0.0
2018-Jan-30 23:00N 33°44' W 118°10'0 0.0
2018-Jan-30 22:30N 33°44' W 118°10'0 0.0
2018-Jan-30 21:30N 33°44' W 118°10'0 0.0
2018-Jan-30 21:00N 33°44' W 118°10'0 0.1
2018-Jan-30 20:30N 33°44' W 118°10'0 0.1
2018-Jan-30 20:00N 33°44' W 118°10'0 0.1
2018-Jan-30 19:30N 33°44' W 118°10'0 0.1
2018-Jan-30 19:00N 33°44' W 118°10'0 0.0
2018-Jan-30 18:30N 33°44' W 118°10'0 0.0
2018-Jan-30 18:00N 33°44' W 118°10'0 0.0
2018-Jan-30 17:30N 33°44' W 118°10'0 0.0
2018-Jan-30 17:00N 33°44' W 118°10'0 0.1
2018-Jan-30 16:30N 33°44' W 118°10'0 0.0
2018-Jan-30 16:00N 33°44' W 118°10'0 0.0
2018-Jan-30 15:30N 33°44' W 118°10'0 0.0
2018-Jan-30 14:58N 33°44' W 118°10'0 0.0
2018-Jan-30 14:29N 33°44' W 118°10'0 0.1
2018-Jan-30 13:29N 33°44' W 118°10'0 0.0
2018-Jan-30 12:43N 33°44' W 118°10'0 0.0
2018-Jan-30 12:25N 33°44' W 118°10'0 0.0
2018-Jan-30 12:00N 33°44' W 118°10'0 0.0
2018-Jan-30 11:30N 33°44' W 118°10'0 0.1
2018-Jan-30 10:30N 33°44' W 118°10'0 0.1
2018-Jan-30 09:30N 33°44' W 118°10'0 0.1
2018-Jan-30 08:57N 33°44' W 118°10'0 0.1
2018-Jan-30 08:20N 33°44' W 118°10'0 0.1
2018-Jan-30 07:51N 33°44' W 118°10'0 0.1
2018-Jan-30 07:29N 33°44' W 118°10'0 0.1
2018-Jan-30 05:36N 33°44' W 118°10'0 0.0
2018-Jan-30 05:20N 33°44' W 118°10'0 0.2
2018-Jan-30 04:59N 33°44' W 118°10'3 5.4
2018-Jan-30 04:30N 33°41' W 118°11'4 8.2
2018-Jan-30 03:59N 33°37' W 118°13'4 9.1
2018-Jan-30 03:30N 33°36' W 118°18'610.7
2018-Jan-30 02:59N 33°38' W 118°24'1611.7
2018-Jan-30 01:34N 33°46' W 118°41'111.7
2018-Jan-30 01:30N 33°46' W 118°42'611.8
2018-Jan-30 01:00N 33°49' W 118°48'611.9
2018-Jan-30 00:30N 33°52' W 118°55'712.6
2018-Jan-29 23:57N 33°55' W 119°02'613.8
2018-Jan-29 23:31N 33°58' W 119°08'714.0
2018-Jan-29 23:00N 34°02' W 119°16'713.8
2018-Jan-29 22:28N 34°04' W 119°24'4 7.3
2018-Jan-29 21:58N 34°05' W 119°29'2 3.9
2018-Jan-29 21:27N 34°06' W 119°31'510.3
2018-Jan-29 21:00N 34°07' W 119°36'813.6
2018-Jan-29 20:23N 34°09' W 119°46'513.3
2018-Jan-29 19:59N 34°11' W 119°52'813.2
2018-Jan-29 19:24N 34°13' W 120°01'513.3
2018-Jan-29 19:00N 34°14' W 120°07'713.3
2018-Jan-29 18:30N 34°16' W 120°15'612.9
2018-Jan-29 18:00N 34°18' W 120°23'612.4
2018-Jan-29 17:30N 34°19' W 120°30'612.9
2018-Jan-29 17:00N 34°21' W 120°37'713.3
2018-Jan-29 16:30N 34°23' W 120°45'713.3
2018-Jan-29 15:59N 34°25' W 120°53'612.6
2018-Jan-29 15:30N 34°25' W 121°01'612.4
2018-Jan-29 15:00N 34°26' W 121°08'612.4
2018-Jan-29 14:30N 34°27' W 121°15'612.5
2018-Jan-29 14:00N 34°29' W 121°23'612.6
2018-Jan-29 13:30N 34°31' W 121°30'612.7
2018-Jan-29 13:00N 34°34' W 121°37'612.9
2018-Jan-29 12:31N 34°37' W 121°43'612.9
2018-Jan-29 12:01N 34°40' W 121°50'713.2
2018-Jan-29 11:30N 34°44' W 121°57'713.1
2018-Jan-29 11:01N 34°47' W 122°04'612.7
2018-Jan-29 10:31N 34°50' W 122°11'612.8
2018-Jan-29 10:01N 34°53' W 122°18'612.7
2018-Jan-29 09:30N 34°56' W 122°24'612.7
2018-Jan-29 09:01N 34°60' W 122°31'612.8
2018-Jan-29 08:31N 35°03' W 122°37'912.9
2018-Jan-29 07:51N 35°08' W 122°46'413.0
2018-Jan-29 07:30N 35°12' W 122°49'713.1
2018-Jan-29 07:00N 35°18' W 122°53'713.4
2018-Jan-29 06:28N 35°24' W 122°57'613.5
2018-Jan-29 06:00N 35°29' W 123°01'713.4
2018-Jan-29 05:30N 35°35' W 123°04'913.7
2018-Jan-29 04:53N 35°43' W 123°09'513.3
2018-Jan-29 04:30N 35°47' W 123°12'713.1
2018-Jan-29 03:58N 35°53' W 123°16'5913.3
2018-Jan-28 23:33N 36°45' W 123°51'1513.5
2018-Jan-28 22:26N 36°59' W 123°60'3713.4
2018-Jan-28 19:41N 37°31' W 124°22'412.8
2018-Jan-28 19:24N 37°34' W 124°24'1013.2
2018-Jan-28 18:38N 37°43' W 124°30'212.8
2018-Jan-28 18:29N 37°45' W 124°31'613.4
2018-Jan-28 18:00N 37°50' W 124°35'1613.1
2018-Jan-28 16:45N 38°05' W 124°45'413.8
2018-Jan-28 16:29N 38°08' W 124°47'713.6
2018-Jan-28 16:00N 38°14' W 124°51'  
2018-Jan-26 11:39N 48°11' W 125°44'210.9
2018-Jan-26 11:30N 48°13' W 125°42'611.0
2018-Jan-26 10:58N 48°16' W 125°36'511.0
2018-Jan-26 10:29N 48°20' W 125°30'511.0
2018-Jan-26 10:00N 48°24' W 125°24'610.8
2018-Jan-26 09:29N 48°27' W 125°17'510.7
2018-Jan-26 08:58N 48°29' W 125°10'510.9
2018-Jan-26 08:30N 48°32' W 125°03'611.2
2018-Jan-26 08:00N 48°32' W 124°54'611.4
2018-Jan-26 07:30N 48°31' W 124°46'510.7
2018-Jan-26 07:00N 48°29' W 124°38'611.6
2018-Jan-26 06:30N 48°27' W 124°30'611.8
2018-Jan-26 06:00N 48°25' W 124°22'612.4
2018-Jan-26 05:30N 48°23' W 124°13'612.7
2018-Jan-26 05:00N 48°20' W 124°05'612.6
2018-Jan-26 04:30N 48°18' W 123°56'612.1
2018-Jan-26 03:58N 48°17' W 123°46'1511.3
2018-Jan-26 02:37N 48°22' W 123°25'110.2
2018-Jan-26 02:31N 48°23' W 123°24'5 9.7
2018-Jan-26 02:00N 48°23' W 123°16'5 9.3
2018-Jan-26 01:30N 48°27' W 123°12'611.8
2018-Jan-26 01:00N 48°33' W 123°13'612.7
2018-Jan-26 00:30N 48°39' W 123°15'510.6
2018-Jan-26 00:00N 48°44' W 123°11'714.2
2018-Jan-25 23:30N 48°47' W 123°01'611.7
2018-Jan-25 23:00N 48°52' W 123°05'714.5
2018-Jan-25 22:30N 48°57' W 123°13'713.6
2018-Jan-25 22:00N 49°02' W 123°21'  

Dump ship's entire track history